<?xml version="1.0" encoding="UTF-8" standalone="no" ?>
<gpx xmlns="http://www.topografix.com/GPX/1/1" xmlns:xsi="http://www.w3.org/2001/XMLSchema-instance" xsi:schemaLocation="http://www.topografix.com/GPX/1/1 http://www.topografix.com/GPX/1/1/gpx.xsd" version="1.1" creator="VisuGPX - https://www.visugpx.com">
  <metadata>
    <name>Belley / Chazey-Bons20</name>
    <desc><![CDATA[Ain - Bugey.
Boucle au départ de Belley.
Passage à Penaye, Billieu, Chazey-Bons, Bois de Voillenans, Bois de l'Abbaye, Le Moulin, Rothonod, Bilignin.]]></desc>
  </metadata>
  <trk>
    <name><![CDATA[10804410-Belley / Chazey-Bons20]]></name>
    <trkseg>
      <trkpt lat="45.75812" lon="5.68937">
        <ele>280</ele>
        <time>2019-12-18T17:27:01Z</time>
      </trkpt>
      <trkpt lat="45.75813" lon="5.68908">
        <ele>280</ele>
        <time>2019-12-18T17:27:06Z</time>
      </trkpt>
      <trkpt lat="45.75801" lon="5.68908">
        <ele>280</ele>
        <time>2019-12-18T17:27:09Z</time>
      </trkpt>
      <trkpt lat="45.75777" lon="5.68901">
        <ele>280</ele>
        <time>2019-12-18T17:27:14Z</time>
      </trkpt>
      <trkpt lat="45.75781" lon="5.68879">
        <ele>280</ele>
        <time>2019-12-18T17:27:18Z</time>
      </trkpt>
      <trkpt lat="45.75774" lon="5.68863">
        <ele>280</ele>
        <time>2019-12-18T17:27:21Z</time>
      </trkpt>
      <trkpt lat="45.7576" lon="5.68857">
        <ele>280</ele>
        <time>2019-12-18T17:27:24Z</time>
      </trkpt>
      <trkpt lat="45.75745" lon="5.6889">
        <ele>280</ele>
        <time>2019-12-18T17:27:31Z</time>
      </trkpt>
      <trkpt lat="45.75703" lon="5.68861">
        <ele>281</ele>
        <time>2019-12-18T17:27:42Z</time>
      </trkpt>
      <trkpt lat="45.75697" lon="5.68883">
        <ele>282</ele>
        <time>2019-12-18T17:27:46Z</time>
      </trkpt>
      <trkpt lat="45.75645" lon="5.69028">
        <ele>285</ele>
        <time>2019-12-18T17:28:12Z</time>
      </trkpt>
      <trkpt lat="45.75635" lon="5.69075">
        <ele>285</ele>
        <time>2019-12-18T17:28:20Z</time>
      </trkpt>
      <trkpt lat="45.75671" lon="5.69071">
        <ele>287</ele>
        <time>2019-12-18T17:28:29Z</time>
      </trkpt>
      <trkpt lat="45.75704" lon="5.69059">
        <ele>286</ele>
        <time>2019-12-18T17:28:37Z</time>
      </trkpt>
      <trkpt lat="45.75719" lon="5.6906">
        <ele>285</ele>
        <time>2019-12-18T17:28:40Z</time>
      </trkpt>
      <trkpt lat="45.75771" lon="5.69085">
        <ele>284</ele>
        <time>2019-12-18T17:28:53Z</time>
      </trkpt>
      <trkpt lat="45.75827" lon="5.69119">
        <ele>283</ele>
        <time>2019-12-18T17:29:07Z</time>
      </trkpt>
      <trkpt lat="45.75838" lon="5.69122">
        <ele>282</ele>
        <time>2019-12-18T17:29:10Z</time>
      </trkpt>
      <trkpt lat="45.75838" lon="5.69142">
        <ele>282</ele>
        <time>2019-12-18T17:29:13Z</time>
      </trkpt>
      <trkpt lat="45.75847" lon="5.69142">
        <ele>281</ele>
        <time>2019-12-18T17:29:15Z</time>
      </trkpt>
      <trkpt lat="45.75862" lon="5.69148">
        <ele>280</ele>
        <time>2019-12-18T17:29:19Z</time>
      </trkpt>
      <trkpt lat="45.75948" lon="5.6917">
        <ele>274</ele>
        <time>2019-12-18T17:29:39Z</time>
      </trkpt>
      <trkpt lat="45.75954" lon="5.69165">
        <ele>274</ele>
        <time>2019-12-18T17:29:41Z</time>
      </trkpt>
      <trkpt lat="45.75949" lon="5.69122">
        <ele>274</ele>
        <time>2019-12-18T17:29:48Z</time>
      </trkpt>
      <trkpt lat="45.75954" lon="5.69105">
        <ele>274</ele>
        <time>2019-12-18T17:29:51Z</time>
      </trkpt>
      <trkpt lat="45.76009" lon="5.69155">
        <ele>271</ele>
        <time>2019-12-18T17:30:06Z</time>
      </trkpt>
      <trkpt lat="45.76054" lon="5.69203">
        <ele>269</ele>
        <time>2019-12-18T17:30:19Z</time>
      </trkpt>
      <trkpt lat="45.76114" lon="5.69245">
        <ele>266</ele>
        <time>2019-12-18T17:30:35Z</time>
      </trkpt>
      <trkpt lat="45.76121" lon="5.69238">
        <ele>266</ele>
        <time>2019-12-18T17:30:37Z</time>
      </trkpt>
      <trkpt lat="45.7614" lon="5.69226">
        <ele>266</ele>
        <time>2019-12-18T17:30:42Z</time>
      </trkpt>
      <trkpt lat="45.76203" lon="5.69196">
        <ele>265</ele>
        <time>2019-12-18T17:30:57Z</time>
      </trkpt>
      <trkpt lat="45.76296" lon="5.69156">
        <ele>267</ele>
        <time>2019-12-18T17:31:20Z</time>
      </trkpt>
      <trkpt lat="45.76399" lon="5.69101">
        <ele>269</ele>
        <time>2019-12-18T17:31:45Z</time>
      </trkpt>
      <trkpt lat="45.76426" lon="5.69099">
        <ele>269</ele>
        <time>2019-12-18T17:31:52Z</time>
      </trkpt>
      <trkpt lat="45.76464" lon="5.69108">
        <ele>270</ele>
        <time>2019-12-18T17:32:01Z</time>
      </trkpt>
      <trkpt lat="45.76518" lon="5.6913">
        <ele>271</ele>
        <time>2019-12-18T17:32:14Z</time>
      </trkpt>
      <trkpt lat="45.76637" lon="5.69194">
        <ele>274</ele>
        <time>2019-12-18T17:32:44Z</time>
      </trkpt>
      <trkpt lat="45.76671" lon="5.69208">
        <ele>275</ele>
        <time>2019-12-18T17:32:52Z</time>
      </trkpt>
      <trkpt lat="45.76682" lon="5.69208">
        <ele>275</ele>
        <time>2019-12-18T17:32:54Z</time>
      </trkpt>
      <trkpt lat="45.76691" lon="5.69204">
        <ele>275</ele>
        <time>2019-12-18T17:32:57Z</time>
      </trkpt>
      <trkpt lat="45.76697" lon="5.69197">
        <ele>276</ele>
        <time>2019-12-18T17:32:58Z</time>
      </trkpt>
      <trkpt lat="45.76704" lon="5.69186">
        <ele>276</ele>
        <time>2019-12-18T17:33:01Z</time>
      </trkpt>
      <trkpt lat="45.76713" lon="5.69154">
        <ele>279</ele>
        <time>2019-12-18T17:33:06Z</time>
      </trkpt>
      <trkpt lat="45.76802" lon="5.69214">
        <ele>280</ele>
        <time>2019-12-18T17:33:29Z</time>
      </trkpt>
      <trkpt lat="45.76959" lon="5.6931">
        <ele>283</ele>
        <time>2019-12-18T17:34:09Z</time>
      </trkpt>
      <trkpt lat="45.76976" lon="5.69315">
        <ele>283</ele>
        <time>2019-12-18T17:34:13Z</time>
      </trkpt>
      <trkpt lat="45.76993" lon="5.69317">
        <ele>284</ele>
        <time>2019-12-18T17:34:17Z</time>
      </trkpt>
      <trkpt lat="45.77031" lon="5.69311">
        <ele>284</ele>
        <time>2019-12-18T17:34:26Z</time>
      </trkpt>
      <trkpt lat="45.77104" lon="5.69288">
        <ele>280</ele>
        <time>2019-12-18T17:34:44Z</time>
      </trkpt>
      <trkpt lat="45.77133" lon="5.69311">
        <ele>274</ele>
        <time>2019-12-18T17:34:51Z</time>
      </trkpt>
      <trkpt lat="45.77153" lon="5.69331">
        <ele>271</ele>
        <time>2019-12-18T17:34:57Z</time>
      </trkpt>
      <trkpt lat="45.77165" lon="5.69347">
        <ele>271</ele>
        <time>2019-12-18T17:35:01Z</time>
      </trkpt>
      <trkpt lat="45.77175" lon="5.69364">
        <ele>270</ele>
        <time>2019-12-18T17:35:05Z</time>
      </trkpt>
      <trkpt lat="45.77202" lon="5.69447">
        <ele>269</ele>
        <time>2019-12-18T17:35:19Z</time>
      </trkpt>
      <trkpt lat="45.77292" lon="5.69585">
        <ele>257</ele>
        <time>2019-12-18T17:35:50Z</time>
      </trkpt>
      <trkpt lat="45.77335" lon="5.69629">
        <ele>250</ele>
        <time>2019-12-18T17:36:03Z</time>
      </trkpt>
      <trkpt lat="45.77402" lon="5.69693">
        <ele>243</ele>
        <time>2019-12-18T17:36:21Z</time>
      </trkpt>
      <trkpt lat="45.77442" lon="5.69722">
        <ele>240</ele>
        <time>2019-12-18T17:36:32Z</time>
      </trkpt>
      <trkpt lat="45.77465" lon="5.69731">
        <ele>239</ele>
        <time>2019-12-18T17:36:37Z</time>
      </trkpt>
      <trkpt lat="45.77496" lon="5.69736">
        <ele>237</ele>
        <time>2019-12-18T17:36:45Z</time>
      </trkpt>
      <trkpt lat="45.77539" lon="5.69725">
        <ele>237</ele>
        <time>2019-12-18T17:36:55Z</time>
      </trkpt>
      <trkpt lat="45.77565" lon="5.69743">
        <ele>237</ele>
        <time>2019-12-18T17:37:02Z</time>
      </trkpt>
      <trkpt lat="45.77591" lon="5.69783">
        <ele>237</ele>
        <time>2019-12-18T17:37:11Z</time>
      </trkpt>
      <trkpt lat="45.77656" lon="5.6985">
        <ele>237</ele>
        <time>2019-12-18T17:37:29Z</time>
      </trkpt>
      <trkpt lat="45.77766" lon="5.6996">
        <ele>239</ele>
        <time>2019-12-18T17:38:01Z</time>
      </trkpt>
      <trkpt lat="45.778" lon="5.6999">
        <ele>240</ele>
        <time>2019-12-18T17:38:10Z</time>
      </trkpt>
      <trkpt lat="45.77992" lon="5.7019">
        <ele>254</ele>
        <time>2019-12-18T17:39:05Z</time>
      </trkpt>
      <trkpt lat="45.78" lon="5.70193">
        <ele>255</ele>
        <time>2019-12-18T17:39:07Z</time>
      </trkpt>
      <trkpt lat="45.78044" lon="5.70245">
        <ele>261</ele>
        <time>2019-12-18T17:39:21Z</time>
      </trkpt>
      <trkpt lat="45.78083" lon="5.70285">
        <ele>266</ele>
        <time>2019-12-18T17:39:32Z</time>
      </trkpt>
      <trkpt lat="45.78113" lon="5.70306">
        <ele>270</ele>
        <time>2019-12-18T17:39:40Z</time>
      </trkpt>
      <trkpt lat="45.78147" lon="5.70336">
        <ele>274</ele>
        <time>2019-12-18T17:39:49Z</time>
      </trkpt>
      <trkpt lat="45.78159" lon="5.7035">
        <ele>275</ele>
        <time>2019-12-18T17:39:52Z</time>
      </trkpt>
      <trkpt lat="45.78176" lon="5.70382">
        <ele>274</ele>
        <time>2019-12-18T17:39:59Z</time>
      </trkpt>
      <trkpt lat="45.78185" lon="5.70394">
        <ele>274</ele>
        <time>2019-12-18T17:40:02Z</time>
      </trkpt>
      <trkpt lat="45.78217" lon="5.70407">
        <ele>277</ele>
        <time>2019-12-18T17:40:10Z</time>
      </trkpt>
      <trkpt lat="45.78238" lon="5.70401">
        <ele>280</ele>
        <time>2019-12-18T17:40:15Z</time>
      </trkpt>
      <trkpt lat="45.78273" lon="5.70374">
        <ele>290</ele>
        <time>2019-12-18T17:40:24Z</time>
      </trkpt>
      <trkpt lat="45.78285" lon="5.70372">
        <ele>292</ele>
        <time>2019-12-18T17:40:27Z</time>
      </trkpt>
      <trkpt lat="45.78299" lon="5.70378">
        <ele>293</ele>
        <time>2019-12-18T17:40:30Z</time>
      </trkpt>
      <trkpt lat="45.78306" lon="5.70386">
        <ele>293</ele>
        <time>2019-12-18T17:40:32Z</time>
      </trkpt>
      <trkpt lat="45.78311" lon="5.70397">
        <ele>293</ele>
        <time>2019-12-18T17:40:34Z</time>
      </trkpt>
      <trkpt lat="45.78335" lon="5.70488">
        <ele>292</ele>
        <time>2019-12-18T17:40:50Z</time>
      </trkpt>
      <trkpt lat="45.78351" lon="5.70537">
        <ele>294</ele>
        <time>2019-12-18T17:40:59Z</time>
      </trkpt>
      <trkpt lat="45.7836" lon="5.70547">
        <ele>295</ele>
        <time>2019-12-18T17:41:02Z</time>
      </trkpt>
      <trkpt lat="45.78371" lon="5.70554">
        <ele>296</ele>
        <time>2019-12-18T17:41:05Z</time>
      </trkpt>
      <trkpt lat="45.78387" lon="5.70558">
        <ele>297</ele>
        <time>2019-12-18T17:41:08Z</time>
      </trkpt>
      <trkpt lat="45.78463" lon="5.70564">
        <ele>300</ele>
        <time>2019-12-18T17:41:26Z</time>
      </trkpt>
      <trkpt lat="45.78485" lon="5.70569">
        <ele>300</ele>
        <time>2019-12-18T17:41:31Z</time>
      </trkpt>
      <trkpt lat="45.78536" lon="5.70573">
        <ele>301</ele>
        <time>2019-12-18T17:41:43Z</time>
      </trkpt>
      <trkpt lat="45.78611" lon="5.70584">
        <ele>301</ele>
        <time>2019-12-18T17:42:01Z</time>
      </trkpt>
      <trkpt lat="45.78701" lon="5.70593">
        <ele>298</ele>
        <time>2019-12-18T17:42:22Z</time>
      </trkpt>
      <trkpt lat="45.78732" lon="5.706">
        <ele>298</ele>
        <time>2019-12-18T17:42:29Z</time>
      </trkpt>
      <trkpt lat="45.78818" lon="5.70608">
        <ele>300</ele>
        <time>2019-12-18T17:42:49Z</time>
      </trkpt>
      <trkpt lat="45.7882" lon="5.70598">
        <ele>300</ele>
        <time>2019-12-18T17:42:51Z</time>
      </trkpt>
      <trkpt lat="45.78873" lon="5.70495">
        <ele>302</ele>
        <time>2019-12-18T17:43:12Z</time>
      </trkpt>
      <trkpt lat="45.78893" lon="5.70467">
        <ele>303</ele>
        <time>2019-12-18T17:43:18Z</time>
      </trkpt>
      <trkpt lat="45.78929" lon="5.70429">
        <ele>304</ele>
        <time>2019-12-18T17:43:29Z</time>
      </trkpt>
      <trkpt lat="45.7895" lon="5.70399">
        <ele>304</ele>
        <time>2019-12-18T17:43:36Z</time>
      </trkpt>
      <trkpt lat="45.78972" lon="5.70358">
        <ele>305</ele>
        <time>2019-12-18T17:43:44Z</time>
      </trkpt>
      <trkpt lat="45.79009" lon="5.70312">
        <ele>305</ele>
        <time>2019-12-18T17:43:56Z</time>
      </trkpt>
      <trkpt lat="45.79007" lon="5.70299">
        <ele>306</ele>
        <time>2019-12-18T17:43:58Z</time>
      </trkpt>
      <trkpt lat="45.79018" lon="5.70226">
        <ele>308</ele>
        <time>2019-12-18T17:44:10Z</time>
      </trkpt>
      <trkpt lat="45.79019" lon="5.70201">
        <ele>309</ele>
        <time>2019-12-18T17:44:14Z</time>
      </trkpt>
      <trkpt lat="45.7902" lon="5.7002">
        <ele>312</ele>
        <time>2019-12-18T17:44:44Z</time>
      </trkpt>
      <trkpt lat="45.79024" lon="5.69944">
        <ele>313</ele>
        <time>2019-12-18T17:44:56Z</time>
      </trkpt>
      <trkpt lat="45.79019" lon="5.69885">
        <ele>314</ele>
        <time>2019-12-18T17:45:06Z</time>
      </trkpt>
      <trkpt lat="45.79006" lon="5.69836">
        <ele>318</ele>
        <time>2019-12-18T17:45:14Z</time>
      </trkpt>
      <trkpt lat="45.7899" lon="5.69746">
        <ele>318</ele>
        <time>2019-12-18T17:45:29Z</time>
      </trkpt>
      <trkpt lat="45.78979" lon="5.69709">
        <ele>318</ele>
        <time>2019-12-18T17:45:36Z</time>
      </trkpt>
      <trkpt lat="45.78966" lon="5.69687">
        <ele>317</ele>
        <time>2019-12-18T17:45:41Z</time>
      </trkpt>
      <trkpt lat="45.78886" lon="5.69571">
        <ele>312</ele>
        <time>2019-12-18T17:46:07Z</time>
      </trkpt>
      <trkpt lat="45.78886" lon="5.6956">
        <ele>311</ele>
        <time>2019-12-18T17:46:09Z</time>
      </trkpt>
      <trkpt lat="45.78892" lon="5.69547">
        <ele>311</ele>
        <time>2019-12-18T17:46:11Z</time>
      </trkpt>
      <trkpt lat="45.78928" lon="5.695">
        <ele>310</ele>
        <time>2019-12-18T17:46:23Z</time>
      </trkpt>
      <trkpt lat="45.78932" lon="5.69488">
        <ele>310</ele>
        <time>2019-12-18T17:46:25Z</time>
      </trkpt>
      <trkpt lat="45.78932" lon="5.69471">
        <ele>310</ele>
        <time>2019-12-18T17:46:28Z</time>
      </trkpt>
      <trkpt lat="45.78926" lon="5.6943">
        <ele>309</ele>
        <time>2019-12-18T17:46:35Z</time>
      </trkpt>
      <trkpt lat="45.78903" lon="5.69355">
        <ele>308</ele>
        <time>2019-12-18T17:46:48Z</time>
      </trkpt>
      <trkpt lat="45.78902" lon="5.69334">
        <ele>308</ele>
        <time>2019-12-18T17:46:51Z</time>
      </trkpt>
      <trkpt lat="45.78981" lon="5.69211">
        <ele>307</ele>
        <time>2019-12-18T17:47:19Z</time>
      </trkpt>
      <trkpt lat="45.78947" lon="5.69178">
        <ele>304</ele>
        <time>2019-12-18T17:47:28Z</time>
      </trkpt>
      <trkpt lat="45.78837" lon="5.69054">
        <ele>298</ele>
        <time>2019-12-18T17:48:01Z</time>
      </trkpt>
      <trkpt lat="45.78837" lon="5.6904">
        <ele>298</ele>
        <time>2019-12-18T17:48:03Z</time>
      </trkpt>
      <trkpt lat="45.78827" lon="5.69017">
        <ele>296</ele>
        <time>2019-12-18T17:48:07Z</time>
      </trkpt>
      <trkpt lat="45.78797" lon="5.68925">
        <ele>289</ele>
        <time>2019-12-18T17:48:24Z</time>
      </trkpt>
      <trkpt lat="45.78757" lon="5.68784">
        <ele>270</ele>
        <time>2019-12-18T17:48:49Z</time>
      </trkpt>
      <trkpt lat="45.78725" lon="5.68736">
        <ele>263</ele>
        <time>2019-12-18T17:49:00Z</time>
      </trkpt>
      <trkpt lat="45.78705" lon="5.68722">
        <ele>260</ele>
        <time>2019-12-18T17:49:05Z</time>
      </trkpt>
      <trkpt lat="45.7869" lon="5.68715">
        <ele>258</ele>
        <time>2019-12-18T17:49:09Z</time>
      </trkpt>
      <trkpt lat="45.78682" lon="5.68716">
        <ele>258</ele>
        <time>2019-12-18T17:49:10Z</time>
      </trkpt>
      <trkpt lat="45.78676" lon="5.68722">
        <ele>259</ele>
        <time>2019-12-18T17:49:12Z</time>
      </trkpt>
      <trkpt lat="45.78672" lon="5.68738">
        <ele>262</ele>
        <time>2019-12-18T17:49:15Z</time>
      </trkpt>
      <trkpt lat="45.78663" lon="5.68754">
        <ele>264</ele>
        <time>2019-12-18T17:49:18Z</time>
      </trkpt>
      <trkpt lat="45.78659" lon="5.6876">
        <ele>264</ele>
        <time>2019-12-18T17:49:20Z</time>
      </trkpt>
      <trkpt lat="45.78652" lon="5.68763">
        <ele>264</ele>
        <time>2019-12-18T17:49:21Z</time>
      </trkpt>
      <trkpt lat="45.78631" lon="5.68765">
        <ele>263</ele>
        <time>2019-12-18T17:49:26Z</time>
      </trkpt>
      <trkpt lat="45.78541" lon="5.68765">
        <ele>257</ele>
        <time>2019-12-18T17:49:47Z</time>
      </trkpt>
      <trkpt lat="45.78532" lon="5.68767">
        <ele>257</ele>
        <time>2019-12-18T17:49:49Z</time>
      </trkpt>
      <trkpt lat="45.78521" lon="5.68778">
        <ele>257</ele>
        <time>2019-12-18T17:49:52Z</time>
      </trkpt>
      <trkpt lat="45.78512" lon="5.6878">
        <ele>256</ele>
        <time>2019-12-18T17:49:55Z</time>
      </trkpt>
      <trkpt lat="45.78505" lon="5.68776">
        <ele>256</ele>
        <time>2019-12-18T17:49:56Z</time>
      </trkpt>
      <trkpt lat="45.78491" lon="5.68757">
        <ele>254</ele>
        <time>2019-12-18T17:50:01Z</time>
      </trkpt>
      <trkpt lat="45.78486" lon="5.68746">
        <ele>252</ele>
        <time>2019-12-18T17:50:03Z</time>
      </trkpt>
      <trkpt lat="45.78481" lon="5.68716">
        <ele>248</ele>
        <time>2019-12-18T17:50:08Z</time>
      </trkpt>
      <trkpt lat="45.78477" lon="5.68707">
        <ele>247</ele>
        <time>2019-12-18T17:50:10Z</time>
      </trkpt>
      <trkpt lat="45.78468" lon="5.68704">
        <ele>246</ele>
        <time>2019-12-18T17:50:12Z</time>
      </trkpt>
      <trkpt lat="45.78457" lon="5.68708">
        <ele>245</ele>
        <time>2019-12-18T17:50:15Z</time>
      </trkpt>
      <trkpt lat="45.78416" lon="5.68733">
        <ele>246</ele>
        <time>2019-12-18T17:50:25Z</time>
      </trkpt>
      <trkpt lat="45.78406" lon="5.68735">
        <ele>245</ele>
        <time>2019-12-18T17:50:27Z</time>
      </trkpt>
      <trkpt lat="45.78398" lon="5.6873">
        <ele>243</ele>
        <time>2019-12-18T17:50:29Z</time>
      </trkpt>
      <trkpt lat="45.78391" lon="5.68706">
        <ele>240</ele>
        <time>2019-12-18T17:50:34Z</time>
      </trkpt>
      <trkpt lat="45.7883" lon="5.68412">
        <ele>232</ele>
        <time>2019-12-18T17:52:27Z</time>
      </trkpt>
      <trkpt lat="45.78871" lon="5.68387">
        <ele>232</ele>
        <time>2019-12-18T17:52:37Z</time>
      </trkpt>
      <trkpt lat="45.78954" lon="5.68348">
        <ele>232</ele>
        <time>2019-12-18T17:52:58Z</time>
      </trkpt>
      <trkpt lat="45.79002" lon="5.68332">
        <ele>232</ele>
        <time>2019-12-18T17:53:09Z</time>
      </trkpt>
      <trkpt lat="45.79146" lon="5.68296">
        <ele>233</ele>
        <time>2019-12-18T17:53:43Z</time>
      </trkpt>
      <trkpt lat="45.79189" lon="5.68283">
        <ele>233</ele>
        <time>2019-12-18T17:53:53Z</time>
      </trkpt>
      <trkpt lat="45.79192" lon="5.68246">
        <ele>231</ele>
        <time>2019-12-18T17:54:00Z</time>
      </trkpt>
      <trkpt lat="45.79189" lon="5.68228">
        <ele>231</ele>
        <time>2019-12-18T17:54:03Z</time>
      </trkpt>
      <trkpt lat="45.79176" lon="5.67859">
        <ele>231</ele>
        <time>2019-12-18T17:55:03Z</time>
      </trkpt>
      <trkpt lat="45.79224" lon="5.67869">
        <ele>233</ele>
        <time>2019-12-18T17:55:14Z</time>
      </trkpt>
      <trkpt lat="45.79237" lon="5.67875">
        <ele>233</ele>
        <time>2019-12-18T17:55:17Z</time>
      </trkpt>
      <trkpt lat="45.79244" lon="5.67883">
        <ele>233</ele>
        <time>2019-12-18T17:55:19Z</time>
      </trkpt>
      <trkpt lat="45.7926" lon="5.67919">
        <ele>230</ele>
        <time>2019-12-18T17:55:26Z</time>
      </trkpt>
      <trkpt lat="45.79304" lon="5.67962">
        <ele>229</ele>
        <time>2019-12-18T17:55:39Z</time>
      </trkpt>
      <trkpt lat="45.79331" lon="5.67995">
        <ele>230</ele>
        <time>2019-12-18T17:55:47Z</time>
      </trkpt>
      <trkpt lat="45.79342" lon="5.68002">
        <ele>230</ele>
        <time>2019-12-18T17:55:50Z</time>
      </trkpt>
      <trkpt lat="45.79362" lon="5.67991">
        <ele>230</ele>
        <time>2019-12-18T17:55:55Z</time>
      </trkpt>
      <trkpt lat="45.79386" lon="5.67996">
        <ele>230</ele>
        <time>2019-12-18T17:56:00Z</time>
      </trkpt>
      <trkpt lat="45.79406" lon="5.67984">
        <ele>230</ele>
        <time>2019-12-18T17:56:06Z</time>
      </trkpt>
      <trkpt lat="45.79446" lon="5.67995">
        <ele>230</ele>
        <time>2019-12-18T17:56:15Z</time>
      </trkpt>
      <trkpt lat="45.79472" lon="5.67994">
        <ele>230</ele>
        <time>2019-12-18T17:56:21Z</time>
      </trkpt>
      <trkpt lat="45.79497" lon="5.6799">
        <ele>230</ele>
        <time>2019-12-18T17:56:27Z</time>
      </trkpt>
      <trkpt lat="45.79534" lon="5.67976">
        <ele>231</ele>
        <time>2019-12-18T17:56:36Z</time>
      </trkpt>
      <trkpt lat="45.79568" lon="5.67951">
        <ele>231</ele>
        <time>2019-12-18T17:56:45Z</time>
      </trkpt>
      <trkpt lat="45.7958" lon="5.67946">
        <ele>232</ele>
        <time>2019-12-18T17:56:48Z</time>
      </trkpt>
      <trkpt lat="45.79592" lon="5.67945">
        <ele>232</ele>
        <time>2019-12-18T17:56:51Z</time>
      </trkpt>
      <trkpt lat="45.79603" lon="5.67947">
        <ele>232</ele>
        <time>2019-12-18T17:56:53Z</time>
      </trkpt>
      <trkpt lat="45.79613" lon="5.67957">
        <ele>232</ele>
        <time>2019-12-18T17:56:56Z</time>
      </trkpt>
      <trkpt lat="45.79635" lon="5.67999">
        <ele>231</ele>
        <time>2019-12-18T17:57:05Z</time>
      </trkpt>
      <trkpt lat="45.79635" lon="5.68017">
        <ele>231</ele>
        <time>2019-12-18T17:57:07Z</time>
      </trkpt>
      <trkpt lat="45.79626" lon="5.68077">
        <ele>231</ele>
        <time>2019-12-18T17:57:17Z</time>
      </trkpt>
      <trkpt lat="45.79625" lon="5.68102">
        <ele>231</ele>
        <time>2019-12-18T17:57:22Z</time>
      </trkpt>
      <trkpt lat="45.79628" lon="5.68129">
        <ele>232</ele>
        <time>2019-12-18T17:57:26Z</time>
      </trkpt>
      <trkpt lat="45.79627" lon="5.6821">
        <ele>234</ele>
        <time>2019-12-18T17:57:39Z</time>
      </trkpt>
      <trkpt lat="45.79633" lon="5.68226">
        <ele>234</ele>
        <time>2019-12-18T17:57:42Z</time>
      </trkpt>
      <trkpt lat="45.79646" lon="5.68232">
        <ele>234</ele>
        <time>2019-12-18T17:57:45Z</time>
      </trkpt>
      <trkpt lat="45.79685" lon="5.68231">
        <ele>233</ele>
        <time>2019-12-18T17:57:54Z</time>
      </trkpt>
      <trkpt lat="45.79844" lon="5.68217">
        <ele>232</ele>
        <time>2019-12-18T17:58:32Z</time>
      </trkpt>
      <trkpt lat="45.79845" lon="5.68144">
        <ele>232</ele>
        <time>2019-12-18T17:58:44Z</time>
      </trkpt>
      <trkpt lat="45.79857" lon="5.6806">
        <ele>231</ele>
        <time>2019-12-18T17:58:57Z</time>
      </trkpt>
      <trkpt lat="45.79872" lon="5.68017">
        <ele>233</ele>
        <time>2019-12-18T17:59:05Z</time>
      </trkpt>
      <trkpt lat="45.79885" lon="5.6799">
        <ele>234</ele>
        <time>2019-12-18T17:59:11Z</time>
      </trkpt>
      <trkpt lat="45.79904" lon="5.67957">
        <ele>236</ele>
        <time>2019-12-18T17:59:18Z</time>
      </trkpt>
      <trkpt lat="45.79909" lon="5.67952">
        <ele>237</ele>
        <time>2019-12-18T17:59:19Z</time>
      </trkpt>
      <trkpt lat="45.79904" lon="5.6793">
        <ele>238</ele>
        <time>2019-12-18T17:59:23Z</time>
      </trkpt>
      <trkpt lat="45.79899" lon="5.67919">
        <ele>239</ele>
        <time>2019-12-18T17:59:25Z</time>
      </trkpt>
      <trkpt lat="45.79884" lon="5.67896">
        <ele>242</ele>
        <time>2019-12-18T17:59:30Z</time>
      </trkpt>
      <trkpt lat="45.79851" lon="5.67854">
        <ele>248</ele>
        <time>2019-12-18T17:59:40Z</time>
      </trkpt>
      <trkpt lat="45.79844" lon="5.67839">
        <ele>250</ele>
        <time>2019-12-18T17:59:43Z</time>
      </trkpt>
      <trkpt lat="45.79873" lon="5.67834">
        <ele>251</ele>
        <time>2019-12-18T17:59:50Z</time>
      </trkpt>
      <trkpt lat="45.79935" lon="5.67849">
        <ele>252</ele>
        <time>2019-12-18T18:00:05Z</time>
      </trkpt>
      <trkpt lat="45.79969" lon="5.67867">
        <ele>251</ele>
        <time>2019-12-18T18:00:13Z</time>
      </trkpt>
      <trkpt lat="45.80007" lon="5.67894">
        <ele>248</ele>
        <time>2019-12-18T18:00:23Z</time>
      </trkpt>
      <trkpt lat="45.80018" lon="5.67898">
        <ele>247</ele>
        <time>2019-12-18T18:00:26Z</time>
      </trkpt>
      <trkpt lat="45.80029" lon="5.67899">
        <ele>247</ele>
        <time>2019-12-18T18:00:28Z</time>
      </trkpt>
      <trkpt lat="45.80063" lon="5.67894">
        <ele>249</ele>
        <time>2019-12-18T18:00:36Z</time>
      </trkpt>
      <trkpt lat="45.80088" lon="5.67896">
        <ele>249</ele>
        <time>2019-12-18T18:00:42Z</time>
      </trkpt>
      <trkpt lat="45.80125" lon="5.67906">
        <ele>248</ele>
        <time>2019-12-18T18:00:51Z</time>
      </trkpt>
      <trkpt lat="45.80134" lon="5.679">
        <ele>249</ele>
        <time>2019-12-18T18:00:53Z</time>
      </trkpt>
      <trkpt lat="45.80208" lon="5.67812">
        <ele>255</ele>
        <time>2019-12-18T18:01:16Z</time>
      </trkpt>
      <trkpt lat="45.8025" lon="5.67769">
        <ele>256</ele>
        <time>2019-12-18T18:01:28Z</time>
      </trkpt>
      <trkpt lat="45.80272" lon="5.67729">
        <ele>258</ele>
        <time>2019-12-18T18:01:36Z</time>
      </trkpt>
      <trkpt lat="45.80284" lon="5.67716">
        <ele>258</ele>
        <time>2019-12-18T18:01:40Z</time>
      </trkpt>
      <trkpt lat="45.80314" lon="5.67698">
        <ele>257</ele>
        <time>2019-12-18T18:01:47Z</time>
      </trkpt>
      <trkpt lat="45.80331" lon="5.67677">
        <ele>257</ele>
        <time>2019-12-18T18:01:52Z</time>
      </trkpt>
      <trkpt lat="45.80342" lon="5.67654">
        <ele>258</ele>
        <time>2019-12-18T18:01:57Z</time>
      </trkpt>
      <trkpt lat="45.80347" lon="5.67634">
        <ele>258</ele>
        <time>2019-12-18T18:02:00Z</time>
      </trkpt>
      <trkpt lat="45.80356" lon="5.67555">
        <ele>263</ele>
        <time>2019-12-18T18:02:14Z</time>
      </trkpt>
      <trkpt lat="45.80366" lon="5.67507">
        <ele>266</ele>
        <time>2019-12-18T18:02:22Z</time>
      </trkpt>
      <trkpt lat="45.80394" lon="5.67465">
        <ele>267</ele>
        <time>2019-12-18T18:02:31Z</time>
      </trkpt>
      <trkpt lat="45.80492" lon="5.67341">
        <ele>264</ele>
        <time>2019-12-18T18:03:02Z</time>
      </trkpt>
      <trkpt lat="45.80498" lon="5.67324">
        <ele>265</ele>
        <time>2019-12-18T18:03:05Z</time>
      </trkpt>
      <trkpt lat="45.80498" lon="5.6731">
        <ele>266</ele>
        <time>2019-12-18T18:03:07Z</time>
      </trkpt>
      <trkpt lat="45.8049" lon="5.6729">
        <ele>268</ele>
        <time>2019-12-18T18:03:11Z</time>
      </trkpt>
      <trkpt lat="45.80508" lon="5.67297">
        <ele>266</ele>
        <time>2019-12-18T18:03:15Z</time>
      </trkpt>
      <trkpt lat="45.80522" lon="5.67296">
        <ele>266</ele>
        <time>2019-12-18T18:03:18Z</time>
      </trkpt>
      <trkpt lat="45.80542" lon="5.67293">
        <ele>266</ele>
        <time>2019-12-18T18:03:23Z</time>
      </trkpt>
      <trkpt lat="45.80559" lon="5.67283">
        <ele>266</ele>
        <time>2019-12-18T18:03:27Z</time>
      </trkpt>
      <trkpt lat="45.80572" lon="5.67272">
        <ele>266</ele>
        <time>2019-12-18T18:03:31Z</time>
      </trkpt>
      <trkpt lat="45.80583" lon="5.67257">
        <ele>267</ele>
        <time>2019-12-18T18:03:34Z</time>
      </trkpt>
      <trkpt lat="45.806" lon="5.67251">
        <ele>267</ele>
        <time>2019-12-18T18:03:39Z</time>
      </trkpt>
      <trkpt lat="45.80621" lon="5.67221">
        <ele>268</ele>
        <time>2019-12-18T18:03:45Z</time>
      </trkpt>
      <trkpt lat="45.80633" lon="5.67218">
        <ele>268</ele>
        <time>2019-12-18T18:03:48Z</time>
      </trkpt>
      <trkpt lat="45.80655" lon="5.67202">
        <ele>268</ele>
        <time>2019-12-18T18:03:54Z</time>
      </trkpt>
      <trkpt lat="45.80665" lon="5.67198">
        <ele>268</ele>
        <time>2019-12-18T18:03:57Z</time>
      </trkpt>
      <trkpt lat="45.80675" lon="5.6719">
        <ele>268</ele>
        <time>2019-12-18T18:03:59Z</time>
      </trkpt>
      <trkpt lat="45.80683" lon="5.67178">
        <ele>269</ele>
        <time>2019-12-18T18:04:02Z</time>
      </trkpt>
      <trkpt lat="45.80704" lon="5.67166">
        <ele>269</ele>
        <time>2019-12-18T18:04:07Z</time>
      </trkpt>
      <trkpt lat="45.80715" lon="5.67171">
        <ele>269</ele>
        <time>2019-12-18T18:04:10Z</time>
      </trkpt>
      <trkpt lat="45.80724" lon="5.67169">
        <ele>270</ele>
        <time>2019-12-18T18:04:12Z</time>
      </trkpt>
      <trkpt lat="45.80729" lon="5.67153">
        <ele>270</ele>
        <time>2019-12-18T18:04:15Z</time>
      </trkpt>
      <trkpt lat="45.80765" lon="5.67098">
        <ele>274</ele>
        <time>2019-12-18T18:04:27Z</time>
      </trkpt>
      <trkpt lat="45.80775" lon="5.67093">
        <ele>274</ele>
        <time>2019-12-18T18:04:30Z</time>
      </trkpt>
      <trkpt lat="45.80786" lon="5.67094">
        <ele>274</ele>
        <time>2019-12-18T18:04:32Z</time>
      </trkpt>
      <trkpt lat="45.80819" lon="5.67087">
        <ele>275</ele>
        <time>2019-12-18T18:04:40Z</time>
      </trkpt>
      <trkpt lat="45.80829" lon="5.67081">
        <ele>276</ele>
        <time>2019-12-18T18:04:43Z</time>
      </trkpt>
      <trkpt lat="45.80838" lon="5.67068">
        <ele>276</ele>
        <time>2019-12-18T18:04:45Z</time>
      </trkpt>
      <trkpt lat="45.80849" lon="5.67026">
        <ele>277</ele>
        <time>2019-12-18T18:04:53Z</time>
      </trkpt>
      <trkpt lat="45.80875" lon="5.66985">
        <ele>278</ele>
        <time>2019-12-18T18:05:02Z</time>
      </trkpt>
      <trkpt lat="45.80895" lon="5.66969">
        <ele>278</ele>
        <time>2019-12-18T18:05:07Z</time>
      </trkpt>
      <trkpt lat="45.80907" lon="5.6694">
        <ele>280</ele>
        <time>2019-12-18T18:05:13Z</time>
      </trkpt>
      <trkpt lat="45.80909" lon="5.66925">
        <ele>281</ele>
        <time>2019-12-18T18:05:15Z</time>
      </trkpt>
      <trkpt lat="45.80925" lon="5.66883">
        <ele>281</ele>
        <time>2019-12-18T18:05:23Z</time>
      </trkpt>
      <trkpt lat="45.80924" lon="5.66867">
        <ele>281</ele>
        <time>2019-12-18T18:05:26Z</time>
      </trkpt>
      <trkpt lat="45.80944" lon="5.66793">
        <ele>282</ele>
        <time>2019-12-18T18:05:38Z</time>
      </trkpt>
      <trkpt lat="45.80945" lon="5.66778">
        <ele>282</ele>
        <time>2019-12-18T18:05:41Z</time>
      </trkpt>
      <trkpt lat="45.80955" lon="5.66753">
        <ele>283</ele>
        <time>2019-12-18T18:05:46Z</time>
      </trkpt>
      <trkpt lat="45.80955" lon="5.66738">
        <ele>284</ele>
        <time>2019-12-18T18:05:48Z</time>
      </trkpt>
      <trkpt lat="45.80939" lon="5.66729">
        <ele>286</ele>
        <time>2019-12-18T18:05:52Z</time>
      </trkpt>
      <trkpt lat="45.80912" lon="5.66756">
        <ele>286</ele>
        <time>2019-12-18T18:06:00Z</time>
      </trkpt>
      <trkpt lat="45.80896" lon="5.66784">
        <ele>286</ele>
        <time>2019-12-18T18:06:06Z</time>
      </trkpt>
      <trkpt lat="45.80885" lon="5.66791">
        <ele>286</ele>
        <time>2019-12-18T18:06:08Z</time>
      </trkpt>
      <trkpt lat="45.80864" lon="5.66797">
        <ele>286</ele>
        <time>2019-12-18T18:06:13Z</time>
      </trkpt>
      <trkpt lat="45.80853" lon="5.66797">
        <ele>287</ele>
        <time>2019-12-18T18:06:16Z</time>
      </trkpt>
      <trkpt lat="45.80836" lon="5.66801">
        <ele>287</ele>
        <time>2019-12-18T18:06:20Z</time>
      </trkpt>
      <trkpt lat="45.80845" lon="5.66792">
        <ele>287</ele>
        <time>2019-12-18T18:06:23Z</time>
      </trkpt>
      <trkpt lat="45.80847" lon="5.66768">
        <ele>288</ele>
        <time>2019-12-18T18:06:27Z</time>
      </trkpt>
      <trkpt lat="45.80829" lon="5.6672">
        <ele>292</ele>
        <time>2019-12-18T18:06:35Z</time>
      </trkpt>
      <trkpt lat="45.8083" lon="5.66701">
        <ele>293</ele>
        <time>2019-12-18T18:06:39Z</time>
      </trkpt>
      <trkpt lat="45.80853" lon="5.66655">
        <ele>295</ele>
        <time>2019-12-18T18:06:48Z</time>
      </trkpt>
      <trkpt lat="45.80858" lon="5.66638">
        <ele>295</ele>
        <time>2019-12-18T18:06:51Z</time>
      </trkpt>
      <trkpt lat="45.80859" lon="5.6662">
        <ele>296</ele>
        <time>2019-12-18T18:06:54Z</time>
      </trkpt>
      <trkpt lat="45.80863" lon="5.66603">
        <ele>297</ele>
        <time>2019-12-18T18:06:57Z</time>
      </trkpt>
      <trkpt lat="45.80868" lon="5.66595">
        <ele>297</ele>
        <time>2019-12-18T18:06:58Z</time>
      </trkpt>
      <trkpt lat="45.80896" lon="5.66567">
        <ele>298</ele>
        <time>2019-12-18T18:07:06Z</time>
      </trkpt>
      <trkpt lat="45.80901" lon="5.66555">
        <ele>298</ele>
        <time>2019-12-18T18:07:09Z</time>
      </trkpt>
      <trkpt lat="45.809" lon="5.66525">
        <ele>298</ele>
        <time>2019-12-18T18:07:13Z</time>
      </trkpt>
      <trkpt lat="45.80892" lon="5.66511">
        <ele>299</ele>
        <time>2019-12-18T18:07:16Z</time>
      </trkpt>
      <trkpt lat="45.80875" lon="5.66491">
        <ele>298</ele>
        <time>2019-12-18T18:07:22Z</time>
      </trkpt>
      <trkpt lat="45.8085" lon="5.66475">
        <ele>298</ele>
        <time>2019-12-18T18:07:28Z</time>
      </trkpt>
      <trkpt lat="45.80849" lon="5.66447">
        <ele>297</ele>
        <time>2019-12-18T18:07:33Z</time>
      </trkpt>
      <trkpt lat="45.80837" lon="5.66428">
        <ele>296</ele>
        <time>2019-12-18T18:07:37Z</time>
      </trkpt>
      <trkpt lat="45.80829" lon="5.6643">
        <ele>296</ele>
        <time>2019-12-18T18:07:39Z</time>
      </trkpt>
      <trkpt lat="45.8082" lon="5.66437">
        <ele>297</ele>
        <time>2019-12-18T18:07:41Z</time>
      </trkpt>
      <trkpt lat="45.80812" lon="5.66449">
        <ele>297</ele>
        <time>2019-12-18T18:07:44Z</time>
      </trkpt>
      <trkpt lat="45.80804" lon="5.66483">
        <ele>298</ele>
        <time>2019-12-18T18:07:50Z</time>
      </trkpt>
      <trkpt lat="45.8081" lon="5.66495">
        <ele>299</ele>
        <time>2019-12-18T18:07:52Z</time>
      </trkpt>
      <trkpt lat="45.80793" lon="5.66529">
        <ele>299</ele>
        <time>2019-12-18T18:07:59Z</time>
      </trkpt>
      <trkpt lat="45.80782" lon="5.66527">
        <ele>300</ele>
        <time>2019-12-18T18:08:01Z</time>
      </trkpt>
      <trkpt lat="45.80771" lon="5.66532">
        <ele>300</ele>
        <time>2019-12-18T18:08:04Z</time>
      </trkpt>
      <trkpt lat="45.80749" lon="5.66525">
        <ele>301</ele>
        <time>2019-12-18T18:08:09Z</time>
      </trkpt>
      <trkpt lat="45.80739" lon="5.66527">
        <ele>301</ele>
        <time>2019-12-18T18:08:12Z</time>
      </trkpt>
      <trkpt lat="45.80729" lon="5.66534">
        <ele>302</ele>
        <time>2019-12-18T18:08:14Z</time>
      </trkpt>
      <trkpt lat="45.80707" lon="5.66577">
        <ele>302</ele>
        <time>2019-12-18T18:08:23Z</time>
      </trkpt>
      <trkpt lat="45.80704" lon="5.66596">
        <ele>301</ele>
        <time>2019-12-18T18:08:26Z</time>
      </trkpt>
      <trkpt lat="45.80701" lon="5.66667">
        <ele>299</ele>
        <time>2019-12-18T18:08:38Z</time>
      </trkpt>
      <trkpt lat="45.80697" lon="5.66687">
        <ele>297</ele>
        <time>2019-12-18T18:08:41Z</time>
      </trkpt>
      <trkpt lat="45.80685" lon="5.66716">
        <ele>293</ele>
        <time>2019-12-18T18:08:47Z</time>
      </trkpt>
      <trkpt lat="45.80683" lon="5.66729">
        <ele>292</ele>
        <time>2019-12-18T18:08:49Z</time>
      </trkpt>
      <trkpt lat="45.80691" lon="5.6676">
        <ele>289</ele>
        <time>2019-12-18T18:08:54Z</time>
      </trkpt>
      <trkpt lat="45.80708" lon="5.668">
        <ele>287</ele>
        <time>2019-12-18T18:09:02Z</time>
      </trkpt>
      <trkpt lat="45.80706" lon="5.66825">
        <ele>285</ele>
        <time>2019-12-18T18:09:06Z</time>
      </trkpt>
      <trkpt lat="45.80671" lon="5.66888">
        <ele>281</ele>
        <time>2019-12-18T18:09:19Z</time>
      </trkpt>
      <trkpt lat="45.80662" lon="5.66881">
        <ele>281</ele>
        <time>2019-12-18T18:09:21Z</time>
      </trkpt>
      <trkpt lat="45.8065" lon="5.6688">
        <ele>281</ele>
        <time>2019-12-18T18:09:24Z</time>
      </trkpt>
      <trkpt lat="45.80612" lon="5.66893">
        <ele>280</ele>
        <time>2019-12-18T18:09:33Z</time>
      </trkpt>
      <trkpt lat="45.80588" lon="5.66915">
        <ele>280</ele>
        <time>2019-12-18T18:09:40Z</time>
      </trkpt>
      <trkpt lat="45.80573" lon="5.66933">
        <ele>279</ele>
        <time>2019-12-18T18:09:44Z</time>
      </trkpt>
      <trkpt lat="45.80563" lon="5.6694">
        <ele>279</ele>
        <time>2019-12-18T18:09:47Z</time>
      </trkpt>
      <trkpt lat="45.80551" lon="5.66944">
        <ele>280</ele>
        <time>2019-12-18T18:09:50Z</time>
      </trkpt>
      <trkpt lat="45.80539" lon="5.66943">
        <ele>280</ele>
        <time>2019-12-18T18:09:53Z</time>
      </trkpt>
      <trkpt lat="45.80499" lon="5.66916">
        <ele>283</ele>
        <time>2019-12-18T18:10:03Z</time>
      </trkpt>
      <trkpt lat="45.80474" lon="5.66907">
        <ele>283</ele>
        <time>2019-12-18T18:10:09Z</time>
      </trkpt>
      <trkpt lat="45.80454" lon="5.66908">
        <ele>283</ele>
        <time>2019-12-18T18:10:14Z</time>
      </trkpt>
      <trkpt lat="45.80446" lon="5.66913">
        <ele>284</ele>
        <time>2019-12-18T18:10:16Z</time>
      </trkpt>
      <trkpt lat="45.80433" lon="5.6693">
        <ele>283</ele>
        <time>2019-12-18T18:10:20Z</time>
      </trkpt>
      <trkpt lat="45.80409" lon="5.66915">
        <ele>284</ele>
        <time>2019-12-18T18:10:26Z</time>
      </trkpt>
      <trkpt lat="45.80401" lon="5.66903">
        <ele>284</ele>
        <time>2019-12-18T18:10:29Z</time>
      </trkpt>
      <trkpt lat="45.80391" lon="5.66897">
        <ele>284</ele>
        <time>2019-12-18T18:10:31Z</time>
      </trkpt>
      <trkpt lat="45.80356" lon="5.66893">
        <ele>284</ele>
        <time>2019-12-18T18:10:39Z</time>
      </trkpt>
      <trkpt lat="45.80344" lon="5.66885">
        <ele>285</ele>
        <time>2019-12-18T18:10:43Z</time>
      </trkpt>
      <trkpt lat="45.80317" lon="5.66887">
        <ele>285</ele>
        <time>2019-12-18T18:10:49Z</time>
      </trkpt>
      <trkpt lat="45.80308" lon="5.66881">
        <ele>286</ele>
        <time>2019-12-18T18:10:51Z</time>
      </trkpt>
      <trkpt lat="45.80308" lon="5.66856">
        <ele>286</ele>
        <time>2019-12-18T18:10:55Z</time>
      </trkpt>
      <trkpt lat="45.80266" lon="5.66858">
        <ele>288</ele>
        <time>2019-12-18T18:11:05Z</time>
      </trkpt>
      <trkpt lat="45.80245" lon="5.66855">
        <ele>288</ele>
        <time>2019-12-18T18:11:10Z</time>
      </trkpt>
      <trkpt lat="45.802" lon="5.66827">
        <ele>285</ele>
        <time>2019-12-18T18:11:21Z</time>
      </trkpt>
      <trkpt lat="45.8019" lon="5.66815">
        <ele>284</ele>
        <time>2019-12-18T18:11:25Z</time>
      </trkpt>
      <trkpt lat="45.80164" lon="5.66811">
        <ele>281</ele>
        <time>2019-12-18T18:11:31Z</time>
      </trkpt>
      <trkpt lat="45.80152" lon="5.66823">
        <ele>281</ele>
        <time>2019-12-18T18:11:34Z</time>
      </trkpt>
      <trkpt lat="45.80117" lon="5.66844">
        <ele>279</ele>
        <time>2019-12-18T18:11:43Z</time>
      </trkpt>
      <trkpt lat="45.80098" lon="5.66869">
        <ele>279</ele>
        <time>2019-12-18T18:11:49Z</time>
      </trkpt>
      <trkpt lat="45.80087" lon="5.66878">
        <ele>279</ele>
        <time>2019-12-18T18:11:52Z</time>
      </trkpt>
      <trkpt lat="45.80065" lon="5.66882">
        <ele>276</ele>
        <time>2019-12-18T18:11:57Z</time>
      </trkpt>
      <trkpt lat="45.80043" lon="5.66874">
        <ele>273</ele>
        <time>2019-12-18T18:12:02Z</time>
      </trkpt>
      <trkpt lat="45.80016" lon="5.66859">
        <ele>269</ele>
        <time>2019-12-18T18:12:09Z</time>
      </trkpt>
      <trkpt lat="45.79998" lon="5.6686">
        <ele>267</ele>
        <time>2019-12-18T18:12:13Z</time>
      </trkpt>
      <trkpt lat="45.7998" lon="5.66852">
        <ele>267</ele>
        <time>2019-12-18T18:12:18Z</time>
      </trkpt>
      <trkpt lat="45.79967" lon="5.66841">
        <ele>266</ele>
        <time>2019-12-18T18:12:21Z</time>
      </trkpt>
      <trkpt lat="45.79945" lon="5.66835">
        <ele>266</ele>
        <time>2019-12-18T18:12:26Z</time>
      </trkpt>
      <trkpt lat="45.79904" lon="5.66807">
        <ele>265</ele>
        <time>2019-12-18T18:12:37Z</time>
      </trkpt>
      <trkpt lat="45.79876" lon="5.66781">
        <ele>264</ele>
        <time>2019-12-18T18:12:45Z</time>
      </trkpt>
      <trkpt lat="45.79865" lon="5.66774">
        <ele>264</ele>
        <time>2019-12-18T18:12:48Z</time>
      </trkpt>
      <trkpt lat="45.79847" lon="5.66774">
        <ele>266</ele>
        <time>2019-12-18T18:12:52Z</time>
      </trkpt>
      <trkpt lat="45.79827" lon="5.6677">
        <ele>266</ele>
        <time>2019-12-18T18:12:57Z</time>
      </trkpt>
      <trkpt lat="45.79799" lon="5.66785">
        <ele>267</ele>
        <time>2019-12-18T18:13:04Z</time>
      </trkpt>
      <trkpt lat="45.79788" lon="5.66778">
        <ele>266</ele>
        <time>2019-12-18T18:13:06Z</time>
      </trkpt>
      <trkpt lat="45.79778" lon="5.66776">
        <ele>266</ele>
        <time>2019-12-18T18:13:09Z</time>
      </trkpt>
      <trkpt lat="45.79759" lon="5.6678">
        <ele>266</ele>
        <time>2019-12-18T18:13:13Z</time>
      </trkpt>
      <trkpt lat="45.79746" lon="5.66766">
        <ele>265</ele>
        <time>2019-12-18T18:13:17Z</time>
      </trkpt>
      <trkpt lat="45.79709" lon="5.66748">
        <ele>263</ele>
        <time>2019-12-18T18:13:26Z</time>
      </trkpt>
      <trkpt lat="45.79683" lon="5.66753">
        <ele>263</ele>
        <time>2019-12-18T18:13:32Z</time>
      </trkpt>
      <trkpt lat="45.79661" lon="5.66749">
        <ele>262</ele>
        <time>2019-12-18T18:13:37Z</time>
      </trkpt>
      <trkpt lat="45.7965" lon="5.66758">
        <ele>262</ele>
        <time>2019-12-18T18:13:40Z</time>
      </trkpt>
      <trkpt lat="45.79634" lon="5.66764">
        <ele>263</ele>
        <time>2019-12-18T18:13:44Z</time>
      </trkpt>
      <trkpt lat="45.79618" lon="5.66766">
        <ele>263</ele>
        <time>2019-12-18T18:13:48Z</time>
      </trkpt>
      <trkpt lat="45.79607" lon="5.66771">
        <ele>263</ele>
        <time>2019-12-18T18:13:51Z</time>
      </trkpt>
      <trkpt lat="45.79595" lon="5.66767">
        <ele>262</ele>
        <time>2019-12-18T18:13:54Z</time>
      </trkpt>
      <trkpt lat="45.79582" lon="5.66769">
        <ele>262</ele>
        <time>2019-12-18T18:13:57Z</time>
      </trkpt>
      <trkpt lat="45.79557" lon="5.66791">
        <ele>263</ele>
        <time>2019-12-18T18:14:03Z</time>
      </trkpt>
      <trkpt lat="45.79545" lon="5.66787">
        <ele>262</ele>
        <time>2019-12-18T18:14:06Z</time>
      </trkpt>
      <trkpt lat="45.79532" lon="5.66764">
        <ele>259</ele>
        <time>2019-12-18T18:14:11Z</time>
      </trkpt>
      <trkpt lat="45.79521" lon="5.6677">
        <ele>259</ele>
        <time>2019-12-18T18:14:14Z</time>
      </trkpt>
      <trkpt lat="45.79507" lon="5.66786">
        <ele>259</ele>
        <time>2019-12-18T18:14:18Z</time>
      </trkpt>
      <trkpt lat="45.79495" lon="5.66818">
        <ele>261</ele>
        <time>2019-12-18T18:14:24Z</time>
      </trkpt>
      <trkpt lat="45.7947" lon="5.66825">
        <ele>260</ele>
        <time>2019-12-18T18:14:30Z</time>
      </trkpt>
      <trkpt lat="45.79445" lon="5.66848">
        <ele>259</ele>
        <time>2019-12-18T18:14:37Z</time>
      </trkpt>
      <trkpt lat="45.79432" lon="5.66883">
        <ele>259</ele>
        <time>2019-12-18T18:14:43Z</time>
      </trkpt>
      <trkpt lat="45.79402" lon="5.66941">
        <ele>260</ele>
        <time>2019-12-18T18:14:55Z</time>
      </trkpt>
      <trkpt lat="45.79373" lon="5.67015">
        <ele>259</ele>
        <time>2019-12-18T18:15:09Z</time>
      </trkpt>
      <trkpt lat="45.79366" lon="5.67047">
        <ele>257</ele>
        <time>2019-12-18T18:15:14Z</time>
      </trkpt>
      <trkpt lat="45.79364" lon="5.67081">
        <ele>254</ele>
        <time>2019-12-18T18:15:20Z</time>
      </trkpt>
      <trkpt lat="45.79359" lon="5.67101">
        <ele>254</ele>
        <time>2019-12-18T18:15:23Z</time>
      </trkpt>
      <trkpt lat="45.79348" lon="5.67111">
        <ele>252</ele>
        <time>2019-12-18T18:15:26Z</time>
      </trkpt>
      <trkpt lat="45.79329" lon="5.6715">
        <ele>251</ele>
        <time>2019-12-18T18:15:34Z</time>
      </trkpt>
      <trkpt lat="45.79306" lon="5.67188">
        <ele>256</ele>
        <time>2019-12-18T18:15:42Z</time>
      </trkpt>
      <trkpt lat="45.79293" lon="5.67197">
        <ele>258</ele>
        <time>2019-12-18T18:15:46Z</time>
      </trkpt>
      <trkpt lat="45.79283" lon="5.67216">
        <ele>259</ele>
        <time>2019-12-18T18:15:50Z</time>
      </trkpt>
      <trkpt lat="45.79253" lon="5.67289">
        <ele>255</ele>
        <time>2019-12-18T18:16:03Z</time>
      </trkpt>
      <trkpt lat="45.79234" lon="5.67347">
        <ele>256</ele>
        <time>2019-12-18T18:16:14Z</time>
      </trkpt>
      <trkpt lat="45.79232" lon="5.6737">
        <ele>256</ele>
        <time>2019-12-18T18:16:18Z</time>
      </trkpt>
      <trkpt lat="45.7922" lon="5.67391">
        <ele>256</ele>
        <time>2019-12-18T18:16:22Z</time>
      </trkpt>
      <trkpt lat="45.79218" lon="5.67408">
        <ele>255</ele>
        <time>2019-12-18T18:16:25Z</time>
      </trkpt>
      <trkpt lat="45.79194" lon="5.67462">
        <ele>253</ele>
        <time>2019-12-18T18:16:35Z</time>
      </trkpt>
      <trkpt lat="45.79184" lon="5.67516">
        <ele>248</ele>
        <time>2019-12-18T18:16:44Z</time>
      </trkpt>
      <trkpt lat="45.79178" lon="5.67526">
        <ele>246</ele>
        <time>2019-12-18T18:16:47Z</time>
      </trkpt>
      <trkpt lat="45.79172" lon="5.67743">
        <ele>236</ele>
        <time>2019-12-18T18:17:22Z</time>
      </trkpt>
      <trkpt lat="45.79145" lon="5.67697">
        <ele>235</ele>
        <time>2019-12-18T18:17:32Z</time>
      </trkpt>
      <trkpt lat="45.79127" lon="5.67685">
        <ele>235</ele>
        <time>2019-12-18T18:17:36Z</time>
      </trkpt>
      <trkpt lat="45.79101" lon="5.67683">
        <ele>234</ele>
        <time>2019-12-18T18:17:42Z</time>
      </trkpt>
      <trkpt lat="45.79031" lon="5.67701">
        <ele>236</ele>
        <time>2019-12-18T18:17:59Z</time>
      </trkpt>
      <trkpt lat="45.78985" lon="5.6771">
        <ele>237</ele>
        <time>2019-12-18T18:18:10Z</time>
      </trkpt>
      <trkpt lat="45.78966" lon="5.67703">
        <ele>238</ele>
        <time>2019-12-18T18:18:14Z</time>
      </trkpt>
      <trkpt lat="45.78947" lon="5.67688">
        <ele>240</ele>
        <time>2019-12-18T18:18:20Z</time>
      </trkpt>
      <trkpt lat="45.78921" lon="5.67652">
        <ele>243</ele>
        <time>2019-12-18T18:18:28Z</time>
      </trkpt>
      <trkpt lat="45.78913" lon="5.67646">
        <ele>244</ele>
        <time>2019-12-18T18:18:30Z</time>
      </trkpt>
      <trkpt lat="45.78894" lon="5.67639">
        <ele>244</ele>
        <time>2019-12-18T18:18:35Z</time>
      </trkpt>
      <trkpt lat="45.78885" lon="5.67633">
        <ele>244</ele>
        <time>2019-12-18T18:18:37Z</time>
      </trkpt>
      <trkpt lat="45.78863" lon="5.67565">
        <ele>248</ele>
        <time>2019-12-18T18:18:49Z</time>
      </trkpt>
      <trkpt lat="45.78857" lon="5.67566">
        <ele>247</ele>
        <time>2019-12-18T18:18:51Z</time>
      </trkpt>
      <trkpt lat="45.78846" lon="5.67562">
        <ele>247</ele>
        <time>2019-12-18T18:18:53Z</time>
      </trkpt>
      <trkpt lat="45.7882" lon="5.67549">
        <ele>247</ele>
        <time>2019-12-18T18:19:00Z</time>
      </trkpt>
      <trkpt lat="45.78778" lon="5.67522">
        <ele>246</ele>
        <time>2019-12-18T18:19:10Z</time>
      </trkpt>
      <trkpt lat="45.7867" lon="5.67488">
        <ele>239</ele>
        <time>2019-12-18T18:19:36Z</time>
      </trkpt>
      <trkpt lat="45.78657" lon="5.67482">
        <ele>239</ele>
        <time>2019-12-18T18:19:39Z</time>
      </trkpt>
      <trkpt lat="45.78613" lon="5.67452">
        <ele>238</ele>
        <time>2019-12-18T18:19:51Z</time>
      </trkpt>
      <trkpt lat="45.78554" lon="5.67416">
        <ele>234</ele>
        <time>2019-12-18T18:20:06Z</time>
      </trkpt>
      <trkpt lat="45.78545" lon="5.67418">
        <ele>234</ele>
        <time>2019-12-18T18:20:08Z</time>
      </trkpt>
      <trkpt lat="45.78537" lon="5.67425">
        <ele>233</ele>
        <time>2019-12-18T18:20:10Z</time>
      </trkpt>
      <trkpt lat="45.78513" lon="5.67456">
        <ele>232</ele>
        <time>2019-12-18T18:20:18Z</time>
      </trkpt>
      <trkpt lat="45.78502" lon="5.67445">
        <ele>231</ele>
        <time>2019-12-18T18:20:21Z</time>
      </trkpt>
      <trkpt lat="45.78483" lon="5.67414">
        <ele>231</ele>
        <time>2019-12-18T18:20:28Z</time>
      </trkpt>
      <trkpt lat="45.78463" lon="5.67397">
        <ele>233</ele>
        <time>2019-12-18T18:20:33Z</time>
      </trkpt>
      <trkpt lat="45.78402" lon="5.67361">
        <ele>232</ele>
        <time>2019-12-18T18:20:48Z</time>
      </trkpt>
      <trkpt lat="45.78365" lon="5.67331">
        <ele>232</ele>
        <time>2019-12-18T18:20:58Z</time>
      </trkpt>
      <trkpt lat="45.7833" lon="5.67312">
        <ele>232</ele>
        <time>2019-12-18T18:21:07Z</time>
      </trkpt>
      <trkpt lat="45.78314" lon="5.67308">
        <ele>232</ele>
        <time>2019-12-18T18:21:11Z</time>
      </trkpt>
      <trkpt lat="45.78298" lon="5.67288">
        <ele>233</ele>
        <time>2019-12-18T18:21:16Z</time>
      </trkpt>
      <trkpt lat="45.78287" lon="5.67287">
        <ele>232</ele>
        <time>2019-12-18T18:21:18Z</time>
      </trkpt>
      <trkpt lat="45.78266" lon="5.67347">
        <ele>230</ele>
        <time>2019-12-18T18:21:29Z</time>
      </trkpt>
      <trkpt lat="45.78238" lon="5.67383">
        <ele>232</ele>
        <time>2019-12-18T18:21:38Z</time>
      </trkpt>
      <trkpt lat="45.78127" lon="5.67317">
        <ele>232</ele>
        <time>2019-12-18T18:22:06Z</time>
      </trkpt>
      <trkpt lat="45.78095" lon="5.67312">
        <ele>233</ele>
        <time>2019-12-18T18:22:14Z</time>
      </trkpt>
      <trkpt lat="45.78067" lon="5.67317">
        <ele>233</ele>
        <time>2019-12-18T18:22:20Z</time>
      </trkpt>
      <trkpt lat="45.77993" lon="5.67343">
        <ele>234</ele>
        <time>2019-12-18T18:22:38Z</time>
      </trkpt>
      <trkpt lat="45.77963" lon="5.67343">
        <ele>234</ele>
        <time>2019-12-18T18:22:45Z</time>
      </trkpt>
      <trkpt lat="45.77944" lon="5.67346">
        <ele>235</ele>
        <time>2019-12-18T18:22:49Z</time>
      </trkpt>
      <trkpt lat="45.77912" lon="5.67362">
        <ele>237</ele>
        <time>2019-12-18T18:22:57Z</time>
      </trkpt>
      <trkpt lat="45.77885" lon="5.67369">
        <ele>242</ele>
        <time>2019-12-18T18:23:04Z</time>
      </trkpt>
      <trkpt lat="45.77889" lon="5.67315">
        <ele>240</ele>
        <time>2019-12-18T18:23:13Z</time>
      </trkpt>
      <trkpt lat="45.77888" lon="5.6726">
        <ele>241</ele>
        <time>2019-12-18T18:23:22Z</time>
      </trkpt>
      <trkpt lat="45.7788" lon="5.67195">
        <ele>243</ele>
        <time>2019-12-18T18:23:32Z</time>
      </trkpt>
      <trkpt lat="45.77874" lon="5.67097">
        <ele>242</ele>
        <time>2019-12-18T18:23:48Z</time>
      </trkpt>
      <trkpt lat="45.77869" lon="5.67072">
        <ele>242</ele>
        <time>2019-12-18T18:23:53Z</time>
      </trkpt>
      <trkpt lat="45.77847" lon="5.67015">
        <ele>242</ele>
        <time>2019-12-18T18:24:03Z</time>
      </trkpt>
      <trkpt lat="45.77821" lon="5.66964">
        <ele>243</ele>
        <time>2019-12-18T18:24:14Z</time>
      </trkpt>
      <trkpt lat="45.77784" lon="5.66914">
        <ele>246</ele>
        <time>2019-12-18T18:24:25Z</time>
      </trkpt>
      <trkpt lat="45.77749" lon="5.66874">
        <ele>249</ele>
        <time>2019-12-18T18:24:36Z</time>
      </trkpt>
      <trkpt lat="45.77714" lon="5.66782">
        <ele>241</ele>
        <time>2019-12-18T18:24:53Z</time>
      </trkpt>
      <trkpt lat="45.77678" lon="5.66726">
        <ele>239</ele>
        <time>2019-12-18T18:25:05Z</time>
      </trkpt>
      <trkpt lat="45.77664" lon="5.66686">
        <ele>237</ele>
        <time>2019-12-18T18:25:13Z</time>
      </trkpt>
      <trkpt lat="45.77639" lon="5.66588">
        <ele>237</ele>
        <time>2019-12-18T18:25:30Z</time>
      </trkpt>
      <trkpt lat="45.77616" lon="5.66531">
        <ele>238</ele>
        <time>2019-12-18T18:25:40Z</time>
      </trkpt>
      <trkpt lat="45.77571" lon="5.66451">
        <ele>238</ele>
        <time>2019-12-18T18:25:57Z</time>
      </trkpt>
      <trkpt lat="45.77561" lon="5.66428">
        <ele>239</ele>
        <time>2019-12-18T18:26:01Z</time>
      </trkpt>
      <trkpt lat="45.77555" lon="5.66411">
        <ele>239</ele>
        <time>2019-12-18T18:26:05Z</time>
      </trkpt>
      <trkpt lat="45.7755" lon="5.66384">
        <ele>238</ele>
        <time>2019-12-18T18:26:09Z</time>
      </trkpt>
      <trkpt lat="45.7755" lon="5.66371">
        <ele>237</ele>
        <time>2019-12-18T18:26:11Z</time>
      </trkpt>
      <trkpt lat="45.77522" lon="5.66359">
        <ele>241</ele>
        <time>2019-12-18T18:26:18Z</time>
      </trkpt>
      <trkpt lat="45.77455" lon="5.66319">
        <ele>240</ele>
        <time>2019-12-18T18:26:35Z</time>
      </trkpt>
      <trkpt lat="45.77403" lon="5.66303">
        <ele>241</ele>
        <time>2019-12-18T18:26:47Z</time>
      </trkpt>
      <trkpt lat="45.7738" lon="5.66302">
        <ele>241</ele>
        <time>2019-12-18T18:26:53Z</time>
      </trkpt>
      <trkpt lat="45.7736" lon="5.66304">
        <ele>242</ele>
        <time>2019-12-18T18:26:58Z</time>
      </trkpt>
      <trkpt lat="45.77296" lon="5.66319">
        <ele>244</ele>
        <time>2019-12-18T18:27:13Z</time>
      </trkpt>
      <trkpt lat="45.77282" lon="5.66297">
        <ele>240</ele>
        <time>2019-12-18T18:27:17Z</time>
      </trkpt>
      <trkpt lat="45.77269" lon="5.66267">
        <ele>235</ele>
        <time>2019-12-18T18:27:23Z</time>
      </trkpt>
      <trkpt lat="45.77259" lon="5.66204">
        <ele>232</ele>
        <time>2019-12-18T18:27:34Z</time>
      </trkpt>
      <trkpt lat="45.77257" lon="5.66155">
        <ele>230</ele>
        <time>2019-12-18T18:27:42Z</time>
      </trkpt>
      <trkpt lat="45.7725" lon="5.66136">
        <ele>230</ele>
        <time>2019-12-18T18:27:45Z</time>
      </trkpt>
      <trkpt lat="45.77238" lon="5.66124">
        <ele>230</ele>
        <time>2019-12-18T18:27:49Z</time>
      </trkpt>
      <trkpt lat="45.77225" lon="5.66124">
        <ele>230</ele>
        <time>2019-12-18T18:27:52Z</time>
      </trkpt>
      <trkpt lat="45.77217" lon="5.66128">
        <ele>230</ele>
        <time>2019-12-18T18:27:54Z</time>
      </trkpt>
      <trkpt lat="45.77207" lon="5.66137">
        <ele>230</ele>
        <time>2019-12-18T18:27:56Z</time>
      </trkpt>
      <trkpt lat="45.77195" lon="5.66154">
        <ele>231</ele>
        <time>2019-12-18T18:28:00Z</time>
      </trkpt>
      <trkpt lat="45.77172" lon="5.66167">
        <ele>231</ele>
        <time>2019-12-18T18:28:06Z</time>
      </trkpt>
      <trkpt lat="45.77125" lon="5.66209">
        <ele>231</ele>
        <time>2019-12-18T18:28:19Z</time>
      </trkpt>
      <trkpt lat="45.77117" lon="5.6622">
        <ele>231</ele>
        <time>2019-12-18T18:28:22Z</time>
      </trkpt>
      <trkpt lat="45.77102" lon="5.66254">
        <ele>232</ele>
        <time>2019-12-18T18:28:28Z</time>
      </trkpt>
      <trkpt lat="45.77064" lon="5.66306">
        <ele>240</ele>
        <time>2019-12-18T18:28:41Z</time>
      </trkpt>
      <trkpt lat="45.77054" lon="5.66307">
        <ele>240</ele>
        <time>2019-12-18T18:28:43Z</time>
      </trkpt>
      <trkpt lat="45.77036" lon="5.66302">
        <ele>241</ele>
        <time>2019-12-18T18:28:47Z</time>
      </trkpt>
      <trkpt lat="45.76895" lon="5.66291">
        <ele>246</ele>
        <time>2019-12-18T18:29:20Z</time>
      </trkpt>
      <trkpt lat="45.76828" lon="5.66281">
        <ele>245</ele>
        <time>2019-12-18T18:29:36Z</time>
      </trkpt>
      <trkpt lat="45.76803" lon="5.66275">
        <ele>246</ele>
        <time>2019-12-18T18:29:42Z</time>
      </trkpt>
      <trkpt lat="45.76767" lon="5.66273">
        <ele>247</ele>
        <time>2019-12-18T18:29:50Z</time>
      </trkpt>
      <trkpt lat="45.76743" lon="5.66278">
        <ele>249</ele>
        <time>2019-12-18T18:29:56Z</time>
      </trkpt>
      <trkpt lat="45.76724" lon="5.66279">
        <ele>250</ele>
        <time>2019-12-18T18:30:00Z</time>
      </trkpt>
      <trkpt lat="45.76702" lon="5.66275">
        <ele>249</ele>
        <time>2019-12-18T18:30:05Z</time>
      </trkpt>
      <trkpt lat="45.76664" lon="5.66277">
        <ele>250</ele>
        <time>2019-12-18T18:30:14Z</time>
      </trkpt>
      <trkpt lat="45.76551" lon="5.66299">
        <ele>256</ele>
        <time>2019-12-18T18:30:41Z</time>
      </trkpt>
      <trkpt lat="45.76535" lon="5.66303">
        <ele>257</ele>
        <time>2019-12-18T18:30:45Z</time>
      </trkpt>
      <trkpt lat="45.7651" lon="5.66314">
        <ele>258</ele>
        <time>2019-12-18T18:30:51Z</time>
      </trkpt>
      <trkpt lat="45.76439" lon="5.66349">
        <ele>260</ele>
        <time>2019-12-18T18:31:08Z</time>
      </trkpt>
      <trkpt lat="45.7639" lon="5.6638">
        <ele>261</ele>
        <time>2019-12-18T18:31:21Z</time>
      </trkpt>
      <trkpt lat="45.76381" lon="5.66401">
        <ele>262</ele>
        <time>2019-12-18T18:31:25Z</time>
      </trkpt>
      <trkpt lat="45.76432" lon="5.6638">
        <ele>263</ele>
        <time>2019-12-18T18:31:37Z</time>
      </trkpt>
      <trkpt lat="45.76473" lon="5.66375">
        <ele>264</ele>
        <time>2019-12-18T18:31:47Z</time>
      </trkpt>
      <trkpt lat="45.76483" lon="5.66377">
        <ele>265</ele>
        <time>2019-12-18T18:31:49Z</time>
      </trkpt>
      <trkpt lat="45.76511" lon="5.66407">
        <ele>269</ele>
        <time>2019-12-18T18:31:57Z</time>
      </trkpt>
      <trkpt lat="45.76521" lon="5.66475">
        <ele>270</ele>
        <time>2019-12-18T18:32:09Z</time>
      </trkpt>
      <trkpt lat="45.7652" lon="5.66508">
        <ele>269</ele>
        <time>2019-12-18T18:32:14Z</time>
      </trkpt>
      <trkpt lat="45.76511" lon="5.66552">
        <ele>270</ele>
        <time>2019-12-18T18:32:22Z</time>
      </trkpt>
      <trkpt lat="45.76493" lon="5.66606">
        <ele>272</ele>
        <time>2019-12-18T18:32:31Z</time>
      </trkpt>
      <trkpt lat="45.76485" lon="5.66621">
        <ele>272</ele>
        <time>2019-12-18T18:32:34Z</time>
      </trkpt>
      <trkpt lat="45.76467" lon="5.66645">
        <ele>272</ele>
        <time>2019-12-18T18:32:40Z</time>
      </trkpt>
      <trkpt lat="45.76435" lon="5.66675">
        <ele>273</ele>
        <time>2019-12-18T18:32:49Z</time>
      </trkpt>
      <trkpt lat="45.76414" lon="5.66691">
        <ele>273</ele>
        <time>2019-12-18T18:32:55Z</time>
      </trkpt>
      <trkpt lat="45.76386" lon="5.66721">
        <ele>274</ele>
        <time>2019-12-18T18:33:03Z</time>
      </trkpt>
      <trkpt lat="45.76342" lon="5.66795">
        <ele>278</ele>
        <time>2019-12-18T18:33:19Z</time>
      </trkpt>
      <trkpt lat="45.76335" lon="5.66803">
        <ele>278</ele>
        <time>2019-12-18T18:33:21Z</time>
      </trkpt>
      <trkpt lat="45.76326" lon="5.66808">
        <ele>278</ele>
        <time>2019-12-18T18:33:23Z</time>
      </trkpt>
      <trkpt lat="45.76181" lon="5.66855">
        <ele>279</ele>
        <time>2019-12-18T18:33:58Z</time>
      </trkpt>
      <trkpt lat="45.7613" lon="5.66898">
        <ele>278</ele>
        <time>2019-12-18T18:34:12Z</time>
      </trkpt>
      <trkpt lat="45.76049" lon="5.66993">
        <ele>276</ele>
        <time>2019-12-18T18:34:36Z</time>
      </trkpt>
      <trkpt lat="45.76035" lon="5.67005">
        <ele>276</ele>
        <time>2019-12-18T18:34:40Z</time>
      </trkpt>
      <trkpt lat="45.76008" lon="5.67017">
        <ele>274</ele>
        <time>2019-12-18T18:34:46Z</time>
      </trkpt>
      <trkpt lat="45.75984" lon="5.67032">
        <ele>274</ele>
        <time>2019-12-18T18:34:53Z</time>
      </trkpt>
      <trkpt lat="45.75957" lon="5.67063">
        <ele>274</ele>
        <time>2019-12-18T18:35:01Z</time>
      </trkpt>
      <trkpt lat="45.75942" lon="5.67084">
        <ele>275</ele>
        <time>2019-12-18T18:35:05Z</time>
      </trkpt>
      <trkpt lat="45.7591" lon="5.67138">
        <ele>278</ele>
        <time>2019-12-18T18:35:17Z</time>
      </trkpt>
      <trkpt lat="45.75869" lon="5.67199">
        <ele>281</ele>
        <time>2019-12-18T18:35:31Z</time>
      </trkpt>
      <trkpt lat="45.75855" lon="5.67226">
        <ele>281</ele>
        <time>2019-12-18T18:35:36Z</time>
      </trkpt>
      <trkpt lat="45.75836" lon="5.67285">
        <ele>282</ele>
        <time>2019-12-18T18:35:47Z</time>
      </trkpt>
      <trkpt lat="45.7583" lon="5.67297">
        <ele>282</ele>
        <time>2019-12-18T18:35:49Z</time>
      </trkpt>
      <trkpt lat="45.75823" lon="5.67305">
        <ele>282</ele>
        <time>2019-12-18T18:35:51Z</time>
      </trkpt>
      <trkpt lat="45.75813" lon="5.67307">
        <ele>281</ele>
        <time>2019-12-18T18:35:54Z</time>
      </trkpt>
      <trkpt lat="45.75754" lon="5.67303">
        <ele>278</ele>
        <time>2019-12-18T18:36:08Z</time>
      </trkpt>
      <trkpt lat="45.75739" lon="5.67296">
        <ele>278</ele>
        <time>2019-12-18T18:36:11Z</time>
      </trkpt>
      <trkpt lat="45.75699" lon="5.67361">
        <ele>281</ele>
        <time>2019-12-18T18:36:25Z</time>
      </trkpt>
      <trkpt lat="45.75629" lon="5.67466">
        <ele>284</ele>
        <time>2019-12-18T18:36:49Z</time>
      </trkpt>
      <trkpt lat="45.756" lon="5.67523">
        <ele>284</ele>
        <time>2019-12-18T18:37:01Z</time>
      </trkpt>
      <trkpt lat="45.7554" lon="5.67707">
        <ele>283</ele>
        <time>2019-12-18T18:37:34Z</time>
      </trkpt>
      <trkpt lat="45.75535" lon="5.6773">
        <ele>283</ele>
        <time>2019-12-18T18:37:38Z</time>
      </trkpt>
      <trkpt lat="45.75534" lon="5.67752">
        <ele>284</ele>
        <time>2019-12-18T18:37:41Z</time>
      </trkpt>
      <trkpt lat="45.75536" lon="5.67865">
        <ele>285</ele>
        <time>2019-12-18T18:38:00Z</time>
      </trkpt>
      <trkpt lat="45.75527" lon="5.67921">
        <ele>287</ele>
        <time>2019-12-18T18:38:09Z</time>
      </trkpt>
      <trkpt lat="45.75521" lon="5.67944">
        <ele>288</ele>
        <time>2019-12-18T18:38:13Z</time>
      </trkpt>
      <trkpt lat="45.7549" lon="5.68026">
        <ele>291</ele>
        <time>2019-12-18T18:38:28Z</time>
      </trkpt>
      <trkpt lat="45.7547" lon="5.68054">
        <ele>291</ele>
        <time>2019-12-18T18:38:35Z</time>
      </trkpt>
      <trkpt lat="45.75471" lon="5.68066">
        <ele>291</ele>
        <time>2019-12-18T18:38:37Z</time>
      </trkpt>
      <trkpt lat="45.75504" lon="5.68093">
        <ele>292</ele>
        <time>2019-12-18T18:38:45Z</time>
      </trkpt>
      <trkpt lat="45.75516" lon="5.68099">
        <ele>291</ele>
        <time>2019-12-18T18:38:48Z</time>
      </trkpt>
      <trkpt lat="45.75569" lon="5.68144">
        <ele>289</ele>
        <time>2019-12-18T18:39:03Z</time>
      </trkpt>
      <trkpt lat="45.75601" lon="5.68166">
        <ele>289</ele>
        <time>2019-12-18T18:39:11Z</time>
      </trkpt>
      <trkpt lat="45.75573" lon="5.68342">
        <ele>287</ele>
        <time>2019-12-18T18:39:41Z</time>
      </trkpt>
      <trkpt lat="45.75573" lon="5.68356">
        <ele>288</ele>
        <time>2019-12-18T18:39:43Z</time>
      </trkpt>
      <trkpt lat="45.7557" lon="5.68364">
        <ele>288</ele>
        <time>2019-12-18T18:39:44Z</time>
      </trkpt>
      <trkpt lat="45.75572" lon="5.68374">
        <ele>288</ele>
        <time>2019-12-18T18:39:46Z</time>
      </trkpt>
      <trkpt lat="45.75576" lon="5.6838">
        <ele>287</ele>
        <time>2019-12-18T18:39:47Z</time>
      </trkpt>
      <trkpt lat="45.75621" lon="5.68498">
        <ele>284</ele>
        <time>2019-12-18T18:40:09Z</time>
      </trkpt>
      <trkpt lat="45.75658" lon="5.68622">
        <ele>284</ele>
        <time>2019-12-18T18:40:31Z</time>
      </trkpt>
      <trkpt lat="45.75791" lon="5.68623">
        <ele>281</ele>
        <time>2019-12-18T18:41:02Z</time>
      </trkpt>
      <trkpt lat="45.75823" lon="5.68626">
        <ele>281</ele>
        <time>2019-12-18T18:41:10Z</time>
      </trkpt>
      <trkpt lat="45.75819" lon="5.68691">
        <ele>280</ele>
        <time>2019-12-18T18:41:20Z</time>
      </trkpt>
      <trkpt lat="45.75808" lon="5.68773">
        <ele>279</ele>
        <time>2019-12-18T18:41:34Z</time>
      </trkpt>
      <trkpt lat="45.7579" lon="5.68828">
        <ele>279</ele>
        <time>2019-12-18T18:41:44Z</time>
      </trkpt>
      <trkpt lat="45.75824" lon="5.68851">
        <ele>280</ele>
        <time>2019-12-18T18:41:53Z</time>
      </trkpt>
      <trkpt lat="45.75837" lon="5.68863">
        <ele>280</ele>
        <time>2019-12-18T18:41:56Z</time>
      </trkpt>
      <trkpt lat="45.75827" lon="5.68875">
        <ele>280</ele>
        <time>2019-12-18T18:41:59Z</time>
      </trkpt>
      <trkpt lat="45.75813" lon="5.68909">
        <ele>280</ele>
        <time>2019-12-18T18:42:06Z</time>
      </trkpt>
      <trkpt lat="45.7581" lon="5.68938">
        <ele>280</ele>
        <time>2019-12-18T18:42:11Z</time>
      </trkpt>
    </trkseg>
  </trk>
</gpx>